createdAt,value
2023-02-21T00:01:59.977Z,6.60
2023-02-21T00:04:45.288Z,6.60
2023-02-21T00:07:30.770Z,6.70
2023-02-21T00:10:16.412Z,6.70
2023-02-21T00:13:01.541Z,6.70
2023-02-21T00:15:46.631Z,6.70
2023-02-21T00:18:36.538Z,6.70
2023-02-21T00:21:22.204Z,6.60
2023-02-21T00:24:07.782Z,6.60
2023-02-21T00:26:58.046Z,6.60
2023-02-21T00:29:43.447Z,6.60
2023-02-21T00:32:34.394Z,6.70
2023-02-21T00:35:19.794Z,6.70
2023-02-21T00:38:10.124Z,6.80
2023-02-21T00:40:55.779Z,6.80
2023-02-21T00:43:52.595Z,6.90
2023-02-21T00:46:39.188Z,6.90
2023-02-21T00:49:26.032Z,7.00
2023-02-21T00:52:11.722Z,7.00
2023-02-21T00:54:57.150Z,7.00
2023-02-21T00:57:42.614Z,7.00
2023-02-21T01:00:37.170Z,7.00
2023-02-21T01:03:23.558Z,7.00
2023-02-21T01:06:09.289Z,6.90
2023-02-21T01:08:55.010Z,6.90
2023-02-21T01:11:41.046Z,6.90
2023-02-21T01:14:28.408Z,6.90
2023-02-21T01:17:13.999Z,7.00
2023-02-21T01:20:00.983Z,7.00
2023-02-21T01:22:48.366Z,7.00
2023-02-21T01:25:36.119Z,6.90
2023-02-21T01:28:21.163Z,7.00
2023-02-21T01:31:06.654Z,7.00
2023-02-21T01:33:59.599Z,7.00
2023-02-21T01:36:45.846Z,7.00
2023-02-21T01:39:32.086Z,7.00
2023-02-21T01:42:17.612Z,7.00
2023-02-21T01:45:05.554Z,7.00
2023-02-21T01:47:51.796Z,7.00
2023-02-21T01:50:50.564Z,7.00
2023-02-21T01:53:41.790Z,7.00
2023-02-21T01:56:28.437Z,7.10
2023-02-21T01:59:19.316Z,7.10
2023-02-21T02:02:12.969Z,7.10
2023-02-21T02:04:59.108Z,7.10
2023-02-21T02:07:44.520Z,7.10
2023-02-21T02:10:31.847Z,7.10
2023-02-21T02:13:32.857Z,7.10
2023-02-21T02:16:09.559Z,7.20
2023-02-21T02:19:12.821Z,7.20
2023-02-21T02:22:15.020Z,7.20
2023-02-21T02:25:08.247Z,7.20
2023-02-21T02:27:42.534Z,7.20
2023-02-21T02:30:45.708Z,7.20
2023-02-21T02:33:55.152Z,7.20
2023-02-21T02:36:39.354Z,7.20
2023-02-21T02:39:42.846Z,7.30
2023-02-21T02:42:45.455Z,7.30
2023-02-21T02:45:49.413Z,7.30
2023-02-21T02:48:33.159Z,7.20
2023-02-21T02:51:03.239Z,7.30
2023-02-21T02:53:30.778Z,7.30
2023-02-21T02:56:01.448Z,7.20
2023-02-21T02:58:38.253Z,7.20
2023-02-21T03:01:51.613Z,7.10
2023-02-21T03:04:48.172Z,7.10
2023-02-21T03:07:37.496Z,7.00
2023-02-21T03:10:35.916Z,6.90
2023-02-21T03:13:26.953Z,6.80
2023-02-21T03:16:19.505Z,6.70
2023-02-21T03:18:59.844Z,6.50
2023-02-21T03:21:35.902Z,6.50
2023-02-21T03:24:06.137Z,6.40
2023-02-21T03:26:37.438Z,6.30
2023-02-21T03:29:04.869Z,6.20
2023-02-21T03:31:40.182Z,6.10
2023-02-21T03:34:06.913Z,6.00
2023-02-21T03:36:33.698Z,5.90
2023-02-21T03:39:00.280Z,5.90
2023-02-21T03:41:27.050Z,5.70
2023-02-21T03:43:54.349Z,5.60
2023-02-21T03:46:21.058Z,5.50
2023-02-21T03:48:57.681Z,5.40
2023-02-21T03:51:24.271Z,5.30
2023-02-21T03:53:50.834Z,5.20
2023-02-21T03:56:17.480Z,5.20
2023-02-21T03:58:44.059Z,5.10
2023-02-21T04:01:10.750Z,5.10
2023-02-21T04:03:44.796Z,5.00
2023-02-21T04:06:17.768Z,4.90
2023-02-21T04:08:44.360Z,4.90
2023-02-21T04:11:11.001Z,4.90
2023-02-21T04:13:37.585Z,4.90
2023-02-21T04:16:04.870Z,4.80
2023-02-21T04:18:31.450Z,4.80
2023-02-21T04:20:59.349Z,4.70
2023-02-21T04:23:26.026Z,4.70
2023-02-21T04:25:52.619Z,4.70
2023-02-21T04:28:19.272Z,4.60
2023-02-21T04:30:46.101Z,4.60
2023-02-21T04:33:12.842Z,4.50
2023-02-21T04:35:39.480Z,4.50
2023-02-21T04:38:06.072Z,4.50
2023-02-21T04:40:32.673Z,4.40
2023-02-21T04:42:59.246Z,4.40
2023-02-21T04:45:25.856Z,4.40
2023-02-21T04:47:52.498Z,4.40
2023-02-21T04:50:19.389Z,4.30
2023-02-21T04:52:47.639Z,4.20
2023-02-21T04:55:15.778Z,4.30
2023-02-21T04:57:42.392Z,4.40
2023-02-21T05:00:11.088Z,4.40
2023-02-21T05:02:37.692Z,4.40
2023-02-21T05:05:04.455Z,4.40
2023-02-21T05:07:31.080Z,4.40
2023-02-21T05:09:57.634Z,4.40
2023-02-21T05:12:24.398Z,4.40
2023-02-21T05:14:51.083Z,4.40
2023-02-21T05:17:18.335Z,4.40
2023-02-21T05:19:47.149Z,4.40
2023-02-21T05:22:14.079Z,4.60
2023-02-21T05:24:42.564Z,4.40
2023-02-21T05:27:11.377Z,4.40
2023-02-21T05:29:38.096Z,4.50
2023-02-21T05:32:04.783Z,4.50
2023-02-21T05:34:31.424Z,4.60
2023-02-21T05:36:58.064Z,4.60
2023-02-21T05:39:27.469Z,4.60
2023-02-21T05:41:54.053Z,4.60
2023-02-21T05:44:20.741Z,4.70
2023-02-21T05:46:47.368Z,4.70
2023-02-21T05:49:14.023Z,4.80
2023-02-21T05:51:43.777Z,4.80
2023-02-21T05:54:16.769Z,4.80
2023-02-21T05:56:47.356Z,4.90
2023-02-21T05:59:16.436Z,4.80
2023-02-21T06:01:43.184Z,4.90
2023-02-21T06:04:09.978Z,4.90
2023-02-21T06:06:37.301Z,5.00
2023-02-21T06:09:05.653Z,5.00
2023-02-21T06:11:35.002Z,5.10
2023-02-21T06:14:05.653Z,5.10
2023-02-21T06:16:37.697Z,5.10
2023-02-21T06:19:07.445Z,5.20
2023-02-21T06:21:35.533Z,5.20
2023-02-21T06:24:03.206Z,5.20
2023-02-21T06:26:29.918Z,5.20
2023-02-21T06:28:56.506Z,5.30
2023-02-21T06:31:23.279Z,5.30
2023-02-21T06:33:51.016Z,5.30
2023-02-21T06:36:25.757Z,5.40
2023-02-21T06:38:55.885Z,5.40
2023-02-21T06:41:29.586Z,5.40
2023-02-21T06:43:58.144Z,5.40
2023-02-21T06:46:29.270Z,5.50
2023-02-21T06:48:56.032Z,5.50
2023-02-21T06:51:29.000Z,5.60
2023-02-21T06:53:57.659Z,5.60
2023-02-21T06:56:24.473Z,5.60
2023-02-21T06:58:51.107Z,5.70
2023-02-21T07:01:18.149Z,5.70
2023-02-21T07:03:46.029Z,5.80
2023-02-21T07:06:13.271Z,5.90
2023-02-21T07:08:40.077Z,5.90
2023-02-21T07:11:07.397Z,5.90
2023-02-21T07:13:34.597Z,6.00
2023-02-21T07:16:02.244Z,6.00
2023-02-21T07:18:29.065Z,6.00
2023-02-21T07:20:55.703Z,5.90
2023-02-21T07:23:22.428Z,6.00
2023-02-21T07:25:49.460Z,6.00
2023-02-21T07:28:16.386Z,6.00
2023-02-21T07:30:43.154Z,6.00
2023-02-21T07:33:09.975Z,6.00
2023-02-21T07:35:36.577Z,6.10
2023-02-21T07:38:03.376Z,6.10
2023-02-21T07:40:29.967Z,6.20
2023-02-21T07:42:56.591Z,6.30
2023-02-21T07:45:23.228Z,6.40
2023-02-21T07:47:51.576Z,6.60
2023-02-21T07:50:18.388Z,6.70
2023-02-21T07:52:46.519Z,7.00
2023-02-21T07:55:13.410Z,7.20
2023-02-21T07:57:40.188Z,7.40
2023-02-21T08:00:07.829Z,7.50
2023-02-21T08:02:34.399Z,7.70
2023-02-21T08:05:01.127Z,7.80
2023-02-21T08:07:27.885Z,7.90
2023-02-21T08:09:54.471Z,8.10
2023-02-21T08:12:21.081Z,8.40
2023-02-21T08:14:47.782Z,8.80
2023-02-21T08:17:14.457Z,9.20
2023-02-21T08:19:51.052Z,9.60
2023-02-21T08:22:18.443Z,9.90
2023-02-21T08:24:46.117Z,10.10
2023-02-21T08:27:12.736Z,10.20
2023-02-21T08:29:40.489Z,10.20
2023-02-21T08:32:07.358Z,10.30
2023-02-21T08:34:33.969Z,10.10
2023-02-21T08:37:00.717Z,10.00
2023-02-21T08:39:30.028Z,10.00
2023-02-21T08:41:56.715Z,10.00
2023-02-21T08:44:23.602Z,10.00
2023-02-21T08:46:50.585Z,10.00
2023-02-21T08:49:20.100Z,10.00
2023-02-21T08:51:47.448Z,10.00
2023-02-21T08:54:14.032Z,10.10
2023-02-21T08:56:40.627Z,10.10
2023-02-21T08:59:09.260Z,10.20
2023-02-21T09:01:36.331Z,10.40
2023-02-21T09:04:04.979Z,10.50
2023-02-21T09:06:31.962Z,10.60
2023-02-21T09:08:58.581Z,10.60
2023-02-21T09:11:25.204Z,10.70
2023-02-21T09:13:54.930Z,10.80
2023-02-21T09:16:22.099Z,10.70
2023-02-21T09:19:01.151Z,10.70
2023-02-21T09:21:28.450Z,10.70
2023-02-21T09:23:56.658Z,10.70
2023-02-21T09:26:24.185Z,10.60
2023-02-21T09:28:52.660Z,10.60
2023-02-21T09:31:20.286Z,10.60
2023-02-21T09:33:46.979Z,10.80
2023-02-21T09:36:13.673Z,11.00
2023-02-21T09:38:41.931Z,10.90
2023-02-21T09:41:13.442Z,10.90
2023-02-21T09:43:48.353Z,10.90
2023-02-21T09:46:21.711Z,10.90
2023-02-21T09:48:49.263Z,11.00
2023-02-21T09:51:18.256Z,10.90
2023-02-21T09:53:48.167Z,10.90
2023-02-21T09:56:34.073Z,10.90
2023-02-21T09:59:00.861Z,11.00
2023-02-21T10:01:43.687Z,11.00
2023-02-21T10:04:50.639Z,11.00
2023-02-21T10:07:59.126Z,11.00
2023-02-21T10:10:43.198Z,10.90
2023-02-21T10:13:52.117Z,11.00
2023-02-21T10:16:35.686Z,11.10
2023-02-21T10:19:32.561Z,11.10
2023-02-21T10:22:04.675Z,11.00
2023-02-21T12:01:54.722Z,12.30
2023-02-21T12:04:45.116Z,12.50
2023-02-21T12:07:29.237Z,12.70
2023-02-21T12:10:35.676Z,12.70
2023-02-21T12:13:11.063Z,12.60
2023-02-21T12:16:21.897Z,12.50
2023-02-21T12:19:09.388Z,12.30
2023-02-21T12:21:59.685Z,12.20
2023-02-21T12:24:48.325Z,12.10
2023-02-21T12:27:26.205Z,12.00
2023-02-21T12:30:26.896Z,12.00
2023-02-21T12:33:51.637Z,11.90
2023-02-21T12:36:31.768Z,11.80
2023-02-21T12:39:36.084Z,11.90
2023-02-21T12:42:36.742Z,12.00
2023-02-21T12:45:35.015Z,12.20
2023-02-21T12:48:18.546Z,12.30
2023-02-21T12:50:53.064Z,12.30
2023-02-21T12:53:35.501Z,12.30
2023-02-21T12:56:17.471Z,12.30
2023-02-21T12:58:51.700Z,12.40
2023-02-21T13:01:44.518Z,12.40
2023-02-21T13:04:43.624Z,12.60
2023-02-21T13:07:51.556Z,12.50
2023-02-21T13:10:31.830Z,12.50
2023-02-21T13:13:12.408Z,12.70
2023-02-21T13:15:42.738Z,12.80
2023-02-21T13:18:37.552Z,12.80
2023-02-21T13:21:49.284Z,12.80
2023-02-21T13:24:57.918Z,12.90
2023-02-21T13:27:54.863Z,12.90
2023-02-21T13:30:38.912Z,12.90
2023-02-21T13:33:06.315Z,12.90
2023-02-21T13:35:38.085Z,12.90
2023-02-21T13:38:07.867Z,12.90
2023-02-21T13:40:53.137Z,13.10
2023-02-21T13:43:30.390Z,13.10
2023-02-21T13:46:22.891Z,13.10
2023-02-21T13:49:47.500Z,13.10
2023-02-21T13:52:22.250Z,13.10
2023-02-21T13:55:19.605Z,13.20
2023-02-21T13:57:58.278Z,13.20
2023-02-21T14:00:24.826Z,13.20
2023-02-21T14:02:58.106Z,13.40
2023-02-21T14:05:26.924Z,13.50
2023-02-21T14:08:31.774Z,13.40
2023-02-21T14:11:14.872Z,13.30
2023-02-21T14:13:58.859Z,13.10
2023-02-21T14:16:34.859Z,13.00
2023-02-21T14:19:10.890Z,13.00
2023-02-21T14:21:48.060Z,13.10
2023-02-21T14:24:28.946Z,13.20
2023-02-21T14:27:05.188Z,13.20
2023-02-21T14:29:44.941Z,13.20
2023-02-21T14:32:11.641Z,13.40
2023-02-21T14:34:46.738Z,13.40
2023-02-21T14:37:21.874Z,13.50
2023-02-21T14:40:11.202Z,13.60
2023-02-21T14:43:10.675Z,13.60
2023-02-21T14:45:58.555Z,13.60
2023-02-21T14:48:49.072Z,13.60
2023-02-21T14:51:41.710Z,13.80
2023-02-21T14:55:04.603Z,13.80
2023-02-21T14:58:00.122Z,13.80
2023-02-21T15:01:00.229Z,13.70
2023-02-21T15:03:57.965Z,13.60
2023-02-21T15:06:27.574Z,13.60
2023-02-21T15:08:54.856Z,13.60
2023-02-21T15:11:28.154Z,13.70
2023-02-21T15:14:13.633Z,13.70
2023-02-21T15:16:46.200Z,13.80
2023-02-21T15:19:29.672Z,13.70
2023-02-21T15:22:26.572Z,13.60
2023-02-21T15:25:15.341Z,13.50
2023-02-21T15:27:50.899Z,13.40
2023-02-21T15:30:59.808Z,13.40
2023-02-21T15:33:32.584Z,13.40
2023-02-21T15:36:03.966Z,13.30
2023-02-21T15:38:34.406Z,13.30
2023-02-21T15:41:18.187Z,13.30
2023-02-21T15:43:55.475Z,13.10
2023-02-21T15:46:28.546Z,13.00
2023-02-21T15:49:00.834Z,12.80
2023-02-21T15:51:29.742Z,12.70
2023-02-21T15:54:18.334Z,12.50
2023-02-21T15:56:45.979Z,12.40
2023-02-21T15:59:21.077Z,12.30
2023-02-21T16:02:20.906Z,12.20
2023-02-21T16:04:50.990Z,12.10
2023-02-21T16:07:35.347Z,11.90
2023-02-21T16:10:07.397Z,11.80
2023-02-21T16:12:43.614Z,11.60
2023-02-21T16:15:13.221Z,11.50
2023-02-21T16:17:41.455Z,11.40
2023-02-21T16:20:45.884Z,11.30
2023-02-21T16:23:30.525Z,11.10
2023-02-21T16:26:00.872Z,11.00
2023-02-21T16:28:29.892Z,10.90
2023-02-21T16:31:00.580Z,10.80
2023-02-21T16:33:28.513Z,10.70
2023-02-21T16:35:56.113Z,10.60
2023-02-21T16:38:25.017Z,10.50
2023-02-21T16:40:51.998Z,10.40
2023-02-21T16:43:29.454Z,10.20
2023-02-21T16:45:58.217Z,10.10
2023-02-21T16:48:32.738Z,9.90
2023-02-21T16:51:08.099Z,9.80
2023-02-21T16:53:34.700Z,9.70
2023-02-21T16:56:03.547Z,9.60
2023-02-21T16:58:44.798Z,9.50
2023-02-21T17:01:29.129Z,9.30
2023-02-21T17:03:56.333Z,9.20
2023-02-21T17:06:26.338Z,9.10
2023-02-21T17:08:53.286Z,8.90
2023-02-21T17:11:19.927Z,8.80
2023-02-21T17:13:46.546Z,8.80
2023-02-21T17:16:13.604Z,8.70
2023-02-21T17:18:40.333Z,8.60
2023-02-21T17:21:06.918Z,8.50
2023-02-21T17:23:33.496Z,8.40
2023-02-21T17:26:00.197Z,8.30
2023-02-21T17:28:26.835Z,8.20
2023-02-21T17:30:56.630Z,8.10
2023-02-21T17:33:23.286Z,8.10
2023-02-21T17:35:52.712Z,8.00
2023-02-21T17:38:19.296Z,7.90
2023-02-21T17:40:47.313Z,7.90
2023-02-21T17:43:16.388Z,7.80
2023-02-21T17:45:43.003Z,7.80
2023-02-21T17:48:09.547Z,7.70
2023-02-21T17:50:36.135Z,7.60
2023-02-21T17:53:02.914Z,7.60
2023-02-21T17:55:30.102Z,7.50
2023-02-21T17:57:57.452Z,7.50
2023-02-21T18:00:27.346Z,7.40
2023-02-21T18:02:55.689Z,7.30
2023-02-21T18:05:25.727Z,7.30
2023-02-21T18:07:53.828Z,7.20
2023-02-21T18:10:24.556Z,7.20
2023-02-21T18:12:52.735Z,7.10
2023-02-21T18:15:22.727Z,7.10
2023-02-21T18:17:52.372Z,7.00
2023-02-21T18:20:19.651Z,7.00
2023-02-21T18:22:46.300Z,7.00
2023-02-21T18:25:15.764Z,7.00
2023-02-21T18:27:42.425Z,6.90
2023-02-21T18:30:10.111Z,6.70
2023-02-21T18:32:36.782Z,6.90
2023-02-21T18:35:03.733Z,6.80
2023-02-21T18:37:30.300Z,6.80
2023-02-21T18:39:56.973Z,6.70
2023-02-21T18:42:24.140Z,6.80
2023-02-21T18:44:51.740Z,6.70
2023-02-21T18:47:19.250Z,6.70
2023-02-21T18:49:47.653Z,6.60
2023-02-21T18:52:15.663Z,6.50
2023-02-21T18:54:50.344Z,6.50
2023-02-21T18:57:21.282Z,6.50
2023-02-21T18:59:48.460Z,6.50
2023-02-21T19:02:18.634Z,6.50
2023-02-21T19:04:45.500Z,6.50
2023-02-21T19:07:16.889Z,6.40
2023-02-21T19:09:46.506Z,6.40
2023-02-21T19:12:13.293Z,6.30
2023-02-21T19:14:39.975Z,6.30
2023-02-21T19:17:08.138Z,6.20
2023-02-21T19:19:36.166Z,6.20
2023-02-21T19:22:03.823Z,6.20
2023-02-21T19:24:30.486Z,6.10
2023-02-21T19:26:57.548Z,6.10
2023-02-21T19:29:24.228Z,5.90
2023-02-21T19:31:50.968Z,5.90
2023-02-21T19:34:17.701Z,5.90
2023-02-21T19:36:44.346Z,5.90
2023-02-21T19:39:11.637Z,5.90
2023-02-21T19:41:38.416Z,5.90
2023-02-21T19:44:05.690Z,5.80
2023-02-21T19:46:32.374Z,5.80
2023-02-21T19:49:02.302Z,5.70
2023-02-21T19:51:31.344Z,5.60
2023-02-21T19:53:58.868Z,5.60
2023-02-21T19:56:27.155Z,5.60
2023-02-21T19:58:53.943Z,5.60
2023-02-21T20:01:21.447Z,5.60
2023-02-21T20:03:49.739Z,5.50
2023-02-21T20:06:18.086Z,5.50
2023-02-21T20:08:48.425Z,5.50
2023-02-21T20:11:18.242Z,5.50
2023-02-21T20:13:45.303Z,5.50
2023-02-21T20:16:15.269Z,5.50
2023-02-21T20:18:42.974Z,5.40
2023-02-21T20:21:09.996Z,5.40
2023-02-21T20:23:36.627Z,5.30
2023-02-21T20:26:03.614Z,5.30
2023-02-21T20:28:30.238Z,5.30
2023-02-21T20:31:01.225Z,5.20
2023-02-21T20:33:27.960Z,5.20
2023-02-21T20:35:54.799Z,5.10
2023-02-21T20:38:21.412Z,5.10
2023-02-21T20:40:48.366Z,5.10
2023-02-21T20:43:14.995Z,5.10
2023-02-21T20:45:41.590Z,5.10
2023-02-21T20:48:10.931Z,5.10
2023-02-21T20:50:38.934Z,5.00
2023-02-21T20:53:05.756Z,5.00
2023-02-21T20:55:32.581Z,4.90
2023-02-21T20:57:59.142Z,4.90
2023-02-21T21:00:30.084Z,4.90
2023-02-21T21:02:56.928Z,4.80
2023-02-21T21:05:23.667Z,4.80
2023-02-21T21:07:56.289Z,4.80
2023-02-21T21:10:26.134Z,4.80
2023-02-21T21:12:52.774Z,4.80
2023-02-21T21:15:20.375Z,4.70
2023-02-21T21:17:48.148Z,4.70
2023-02-21T21:20:19.909Z,4.60
2023-02-21T21:22:47.489Z,4.60
2023-02-21T21:25:16.915Z,4.60
2023-02-21T21:27:44.486Z,4.50
2023-02-21T21:30:22.234Z,4.50
2023-02-21T21:32:49.501Z,4.50
2023-02-21T21:35:19.600Z,4.50
2023-02-21T21:37:47.359Z,4.50
2023-02-21T21:40:16.215Z,4.40
2023-02-21T21:42:46.471Z,4.30
2023-02-21T21:45:25.184Z,4.20
2023-02-21T21:47:58.273Z,4.20
2023-02-21T21:50:25.223Z,4.10
2023-02-21T21:52:57.262Z,4.10
2023-02-21T21:55:27.890Z,4.10
2023-02-21T21:57:56.069Z,4.10
2023-02-21T22:00:29.780Z,4.10
2023-02-21T22:02:59.004Z,4.10
2023-02-21T22:05:27.941Z,4.00
2023-02-21T22:07:55.726Z,4.00
2023-02-21T22:10:24.576Z,4.00
2023-02-21T22:12:53.544Z,4.00
2023-02-21T22:15:24.169Z,3.90
2023-02-21T22:17:53.238Z,3.90
2023-02-21T22:20:30.883Z,3.90
2023-02-21T22:22:58.545Z,3.90
2023-02-21T22:25:30.201Z,3.90
2023-02-21T22:27:58.629Z,3.90
2023-02-21T22:30:25.505Z,3.90
2023-02-21T22:32:52.195Z,3.90
2023-02-21T22:35:20.418Z,3.80
2023-02-21T22:37:57.424Z,3.80
2023-02-21T22:40:26.608Z,3.70
2023-02-21T22:42:59.864Z,3.70
2023-02-21T22:45:29.624Z,3.70
2023-02-21T22:47:57.636Z,3.70
2023-02-21T22:50:26.008Z,3.70
2023-02-21T22:52:55.148Z,3.60
2023-02-21T22:55:27.243Z,3.60
2023-02-21T22:57:58.079Z,3.60
2023-02-21T23:00:33.008Z,3.60
2023-02-21T23:03:02.650Z,3.60
2023-02-21T23:05:29.390Z,3.50
2023-02-21T23:08:00.092Z,3.50
2023-02-21T23:10:28.353Z,3.50
2023-02-21T23:12:58.370Z,3.50
2023-02-21T23:15:26.882Z,3.40
2023-02-21T23:17:54.402Z,3.50
2023-02-21T23:20:29.570Z,3.40
2023-02-21T23:22:58.717Z,3.20
2023-02-21T23:25:35.035Z,3.20
2023-02-21T23:28:08.912Z,3.20
2023-02-21T23:30:43.779Z,3.20
2023-02-21T23:33:22.673Z,3.20
2023-02-21T23:35:51.741Z,3.20
2023-02-21T23:38:22.651Z,3.20
2023-02-21T23:40:55.987Z,3.20
2023-02-21T23:43:30.055Z,3.10
2023-02-21T23:45:58.797Z,3.10
2023-02-21T23:48:26.127Z,3.00
2023-02-21T23:50:57.323Z,3.10
2023-02-21T23:53:27.469Z,3.00
2023-02-21T23:56:00.303Z,3.00
2023-02-21T23:58:33.649Z,3.10
